Crew | Aerofun Virtual



 METAR AND TAF INFORMATION
METAR FOR LYBE
ADDS - METARS form results

(0812 UTC 22 July 2019)
Data provider http://aviationweather.gov/metar/data/
 
METAR text: LYBE 220800Z 30008KT 260V320 CAVOK 26/18 Q1022 NOSIG
Conditions at: LYBE (BELGRADE/SURCIN , CS) observed 0800 UTC 22 July 2019
Temperature: 26.0°C (79°F)
Dewpoint: 18.0°C (64°F) [RH = 61%]
Pressure (altimeter): 30.18 inches Hg (1022.0 mb)
Winds: from the WNW (300 degrees) at 9 MPH (8 knots; 4.1 m/s)
Visibility: 6 or more miles (10+ km)
Ceiling: ceiling and visibility are OK
Clouds: unknown
Weather: no significant weather observed at this time

METAR text: LYBE 220730Z 29007KT 260V340 CAVOK 25/18 Q1022 NOSIG
Conditions at: LYBE (BELGRADE/SURCIN , CS) observed 0730 UTC 22 July 2019
Temperature: 25.0°C (77°F)
Dewpoint: 18.0°C (64°F) [RH = 65%]
Pressure (altimeter): 30.18 inches Hg (1022.0 mb)
Winds: from the WNW (290 degrees) at 8 MPH (7 knots; 3.6 m/s)
Visibility: 6 or more miles (10+ km)
Ceiling: ceiling and visibility are OK
Clouds: unknown
Weather: no significant weather observed at this time

Forecast for: LYBE (BELGRADE/SURCIN , CS)
Text: TAF LYBE 220500Z 2206/2306 29006KT 9999 SCT040 TX30/2214Z TN17/2303Z
Forecast period: 0600 UTC 22 July 2019 to 0600 UTC 23 July 2019
Forecast type: FROM: standard forecast or significant change
Winds: from the WNW (290 degrees) at 7 MPH (6 knots; 3.1 m/s)
Visibility: 6 or more miles 10+ km)
Ceiling: at least 12,000 feet AGL
Clouds: scattered clouds at 4000 feet AGL
Weather: no significant weather forecast for this period
Text: TEMPO 2208/2216 33016KT
Forecast period: 0800 to 1600 UTC 22 July 2019
Forecast type: TEMPORARY: The following changes expected for less than half the time period
Winds: from the NNW (330 degrees) at 18 MPH (16 knots; 8.2 m/s)
Visibility: missing
Ceiling: unknown
Clouds: missing
Weather: no significant weather forecast for this period

 AIRPORT MAP

 RUNWAY INFORMATION
Runway 12 Runway length 11155 ft Runway width 148 ft
Runway elevation 318 ft Runway displaced threshold 0 ft Runway heading 122
Runway 30 Runway length 11155 ft Runway width 148 ft
Runway elevation 335 ft Runway displaced threshold 1312 ft Runway heading 302

 AIRPORT FREQUENCIES
Type APP Name APP Frequency 119.1 MHZ
Type ATIS Name INFO Frequency 122.925 MHZ
Type TWR Name TWR Frequency 118.1 MHZ

 AIRPORT NEAR NAVIGATION AIDS
Type VOR-DME Name Beograd Frequency 112300 KHZ
Type NDB Name Beograd Frequency 316 KHZ
Type NDB Name Beograd Frequency 380 KHZ
Type NDB Name Beograd Frequency 355 KHZ